Time,TemperatureF,DewpointF,PressureIn,WindDirection,WindDirectionDegrees,WindSpeedMPH,WindSpeedGustMPH,Humidity,HourlyPrecipIn,Conditions,Clouds,dailyrainin,SoftwareType,DateUTC
2013-04-22 00:11:00,48.2,41.0,30.22,ESE,112,0.0,-999.0,76,-99.99,,,0.00,Acu-Link.com,2013-04-22 05:11:00,
2013-04-22 00:26:00,46.9,42.6,30.22,ESE,112,0.0,-999.0,85,-99.99,,,0.00,Acu-Link.com,2013-04-22 05:26:00,
2013-04-22 00:41:00,45.5,42.2,30.22,ESE,112,0.0,-999.0,88,-99.99,,,0.00,Acu-Link.com,2013-04-22 05:41:00,
2013-04-22 00:56:00,44.8,42.0,30.22,ESE,112,0.0,-999.0,90,-99.99,,,0.00,Acu-Link.com,2013-04-22 05:56:00,
2013-04-22 01:11:00,44.1,43.8,30.22,ESE,112,0.0,-999.0,99,-99.99,,,0.00,Acu-Link.com,2013-04-22 06:11:00,
2013-04-22 01:27:00,43.7,43.4,30.21,ESE,112,1.1,-999.0,99,-99.99,,,0.00,Acu-Link.com,2013-04-22 06:27:00,
2013-04-22 01:42:00,43.3,43.0,30.21,ESE,112,0.0,-999.0,99,-99.99,,,0.00,Acu-Link.com,2013-04-22 06:42:00,
2013-04-22 01:57:00,42.8,42.5,30.21,ESE,112,0.0,-999.0,99,-99.99,,,0.00,Acu-Link.com,2013-04-22 06:57:00,
2013-04-22 02:12:00,42.3,42.0,30.20,ESE,112,0.0,-999.0,99,-99.99,,,0.00,Acu-Link.com,2013-04-22 07:12:00,
2013-04-22 02:27:00,42.1,41.8,30.19,ESE,112,0.0,-999.0,99,-99.99,,,0.00,Acu-Link.com,2013-04-22 07:27:00,
2013-04-22 02:42:00,41.9,41.6,30.19,ESE,112,0.0,-999.0,99,-99.99,,,0.00,Acu-Link.com,2013-04-22 07:42:00,
2013-04-22 02:57:00,41.9,41.6,30.19,ESE,112,0.0,-999.0,99,-99.99,,,0.00,Acu-Link.com,2013-04-22 07:57:00,
2013-04-22 03:12:00,41.4,41.1,30.19,NNW,337,0.0,-999.0,99,-99.99,,,0.00,Acu-Link.com,2013-04-22 08:12:00,
2013-04-22 03:27:00,40.8,40.5,30.19,NE,45,0.0,-999.0,99,-99.99,,,0.00,Acu-Link.com,2013-04-22 08:27:00,
2013-04-22 03:43:00,42.4,39.4,30.19,South,180,0.0,-999.0,89,-99.99,,,0.00,Acu-Link.com,2013-04-22 08:43:00,
2013-04-22 03:58:00,40.6,40.3,30.18,South,180,0.0,-999.0,99,-99.99,,,0.00,Acu-Link.com,2013-04-22 08:58:00,
2013-04-22 04:13:00,42.3,42.0,30.18,South,180,0.0,-999.0,99,-99.99,,,0.00,Acu-Link.com,2013-04-22 09:13:00,
2013-04-22 04:28:00,39.9,38.6,30.18,SE,135,0.0,-999.0,95,-99.99,,,0.00,Acu-Link.com,2013-04-22 09:28:00,
2013-04-22 04:43:00,39.4,39.1,30.18,SE,135,0.0,-999.0,99,-99.99,,,0.00,Acu-Link.com,2013-04-22 09:43:00,
2013-04-22 04:58:00,39.4,39.1,30.18,SSE,157,0.0,-999.0,99,-99.99,,,0.00,Acu-Link.com,2013-04-22 09:58:00,
2013-04-22 05:13:00,39.2,38.9,30.18,South,180,0.0,-999.0,99,-99.99,,,0.00,Acu-Link.com,2013-04-22 10:13:00,
2013-04-22 05:28:00,44.8,38.7,30.17,SSW,202,0.0,-999.0,79,-99.99,,,0.00,Acu-Link.com,2013-04-22 10:28:00,
2013-04-22 05:43:00,39.9,25.5,30.17,SSE,157,0.0,-999.0,56,-99.99,,,0.00,Acu-Link.com,2013-04-22 10:43:00,
2013-04-22 05:59:00,39.2,22.1,30.18,SE,135,0.0,-999.0,50,-99.99,,,0.00,Acu-Link.com,2013-04-22 10:59:00,
2013-04-22 06:14:00,39.2,21.7,30.18,SE,135,0.0,-999.0,49,-99.99,,,0.00,Acu-Link.com,2013-04-22 11:14:00,
2013-04-22 06:29:00,39.4,21.4,30.18,SE,135,0.0,-999.0,48,-99.99,,,0.00,Acu-Link.com,2013-04-22 11:29:00,
2013-04-22 06:44:00,39.9,21.8,30.17,SSE,157,0.0,-999.0,48,-99.99,,,0.00,Acu-Link.com,2013-04-22 11:44:00,
2013-04-22 06:59:00,40.5,23.3,30.18,ESE,112,0.0,-999.0,50,-99.99,,,0.00,Acu-Link.com,2013-04-22 11:59:00,
2013-04-22 07:14:00,42.4,42.1,30.18,ESE,112,1.7,-999.0,99,-99.99,,,0.00,Acu-Link.com,2013-04-22 12:14:00,
2013-04-22 07:29:00,45.7,45.4,30.18,ESE,112,2.2,-999.0,99,-99.99,,,0.00,Acu-Link.com,2013-04-22 12:29:00,
2013-04-22 07:44:00,51.6,50.8,30.18,East,90,2.7,-999.0,97,-99.99,,,0.00,Acu-Link.com,2013-04-22 12:44:00,
2013-04-22 07:59:00,55.4,48.0,30.17,SE,135,3.2,-999.0,76,-99.99,,,0.00,Acu-Link.com,2013-04-22 12:59:00,
2013-04-22 08:15:00,56.1,49.0,30.18,SSE,157,1.7,-999.0,77,-99.99,,,0.00,Acu-Link.com,2013-04-22 13:15:00,
2013-04-22 08:30:00,55.8,49.4,30.17,SE,135,3.2,-999.0,79,-99.99,,,0.00,Acu-Link.com,2013-04-22 13:30:00,
2013-04-22 08:45:00,58.3,48.2,30.17,SSE,157,4.2,-999.0,69,-99.99,,,0.00,Acu-Link.com,2013-04-22 13:45:00,
2013-04-22 09:00:00,59.9,48.1,30.17,SE,135,2.7,-999.0,65,-99.99,,,0.00,Acu-Link.com,2013-04-22 14:00:00,
2013-04-22 09:15:00,61.3,48.2,30.17,ESE,112,3.2,-999.0,62,-99.99,,,0.00,Acu-Link.com,2013-04-22 14:15:00,
2013-04-22 09:30:00,63.5,49.8,30.17,East,90,3.2,-999.0,61,-99.99,,,0.00,Acu-Link.com,2013-04-22 14:30:00,
2013-04-22 09:45:00,65.8,49.7,30.17,SE,135,2.2,-999.0,56,-99.99,,,0.00,Acu-Link.com,2013-04-22 14:45:00,
2013-04-22 10:00:00,67.6,49.9,30.17,SE,135,2.7,-999.0,53,-99.99,,,0.00,Acu-Link.com,2013-04-22 15:00:00,
2013-04-22 10:15:00,68.5,49.1,30.17,SSE,157,3.2,-999.0,50,-99.99,,,0.00,Acu-Link.com,2013-04-22 15:15:00,
2013-04-22 10:31:00,68.4,49.0,30.17,South,180,4.7,-999.0,50,-99.99,,,0.00,Acu-Link.com,2013-04-22 15:31:00,
2013-04-22 10:46:00,69.6,50.1,30.16,SSE,157,3.7,-999.0,50,-99.99,,,0.00,Acu-Link.com,2013-04-22 15:46:00,
2013-04-22 11:01:00,70.7,50.6,30.15,South,180,4.2,-999.0,49,-99.99,,,0.00,Acu-Link.com,2013-04-22 16:01:00,
2013-04-22 11:16:00,71.2,51.0,30.15,South,180,4.7,-999.0,49,-99.99,,,0.00,Acu-Link.com,2013-04-22 16:16:00,
2013-04-22 11:31:00,71.2,51.0,30.15,SE,135,3.7,-999.0,49,-99.99,,,0.00,Acu-Link.com,2013-04-22 16:31:00,
2013-04-22 11:46:00,71.4,51.2,30.14,East,90,3.2,-999.0,49,-99.99,,,0.00,Acu-Link.com,2013-04-22 16:46:00,
2013-04-22 12:01:00,72.3,50.3,30.13,SW,225,1.7,-999.0,46,-99.99,,,0.00,Acu-Link.com,2013-04-22 17:01:00,
2013-04-22 12:16:00,73.8,50.5,30.12,SSE,157,3.2,-999.0,44,-99.99,,,0.00,Acu-Link.com,2013-04-22 17:16:00,
2013-04-22 12:31:00,73.8,47.3,30.11,ESE,112,4.7,-999.0,39,-99.99,,,0.00,Acu-Link.com,2013-04-22 17:31:00,
2013-04-22 12:46:00,74.5,49.2,30.11,East,90,7.3,-999.0,41,-99.99,,,0.00,Acu-Link.com,2013-04-22 17:46:00,
2013-04-22 13:02:00,74.1,48.2,30.11,South,180,6.3,-999.0,40,-99.99,,,0.00,Acu-Link.com,2013-04-22 18:02:00,
2013-04-22 13:17:00,74.5,48.6,30.10,ESE,112,2.7,-999.0,40,-99.99,,,0.00,Acu-Link.com,2013-04-22 18:17:00,
2013-04-22 13:32:00,75.9,49.8,30.09,SE,135,3.7,-999.0,40,-99.99,,,0.00,Acu-Link.com,2013-04-22 18:32:00,
2013-04-22 13:47:00,75.4,49.4,30.08,SSE,157,4.7,-999.0,40,-99.99,,,0.00,Acu-Link.com,2013-04-22 18:47:00,
2013-04-22 14:02:00,76.3,49.5,30.07,SSE,157,6.3,-999.0,39,-99.99,,,0.00,Acu-Link.com,2013-04-22 19:02:00,
2013-04-22 14:17:00,75.7,50.3,30.06,SW,225,3.2,-999.0,41,-99.99,,,0.00,Acu-Link.com,2013-04-22 19:17:00,
2013-04-22 14:32:00,75.4,50.0,30.05,SSE,157,3.2,-999.0,41,-99.99,,,0.00,Acu-Link.com,2013-04-22 19:32:00,
2013-04-22 14:47:00,75.4,50.7,30.05,ESE,112,5.3,-999.0,42,-99.99,,,0.00,Acu-Link.com,2013-04-22 19:47:00,
2013-04-22 15:02:00,74.8,50.2,30.04,SSE,157,3.7,-999.0,42,-99.99,,,0.00,Acu-Link.com,2013-04-22 20:02:00,
2013-04-22 15:18:00,75.6,50.9,30.03,ESE,112,5.8,-999.0,42,-99.99,,,0.00,Acu-Link.com,2013-04-22 20:18:00,
2013-04-22 15:33:00,75.0,49.0,30.03,SSE,157,4.7,-999.0,40,-99.99,,,0.00,Acu-Link.com,2013-04-22 20:33:00,
2013-04-22 15:48:00,74.5,50.5,30.02,SSE,157,3.7,-999.0,43,-99.99,,,0.00,Acu-Link.com,2013-04-22 20:48:00,
2013-04-22 16:03:00,73.4,50.1,30.02,South,180,3.7,-999.0,44,-99.99,,,0.00,Acu-Link.com,2013-04-22 21:03:00,
2013-04-22 16:18:00,74.1,50.2,30.01,SSW,202,5.8,-999.0,43,-99.99,,,0.00,Acu-Link.com,2013-04-22 21:18:00,
2013-04-22 16:37:00,74.7,50.7,30.00,ESE,112,3.2,-999.0,43,-99.99,,,0.00,Acu-Link.com,2013-04-22 21:37:00,
2013-04-22 16:52:00,74.3,50.3,29.99,SE,135,4.2,-999.0,43,-99.99,,,0.00,Acu-Link.com,2013-04-22 21:52:00,
2013-04-22 17:07:00,74.7,50.1,29.99,SSE,157,5.8,-999.0,42,-99.99,,,0.00,Acu-Link.com,2013-04-22 22:07:00,
2013-04-22 17:22:00,74.8,50.2,29.99,South,180,4.7,-999.0,42,-99.99,,,0.00,Acu-Link.com,2013-04-22 22:22:00,
2013-04-22 17:38:00,74.7,50.7,29.98,SSW,202,4.7,-999.0,43,-99.99,,,0.00,Acu-Link.com,2013-04-22 22:38:00,
2013-04-22 17:53:00,73.2,50.0,29.98,SSE,157,4.7,-999.0,44,-99.99,,,0.00,Acu-Link.com,2013-04-22 22:53:00,
2013-04-22 18:08:00,72.3,50.3,29.97,SSE,157,5.3,-999.0,46,-99.99,,,0.00,Acu-Link.com,2013-04-22 23:08:00,
2013-04-22 18:24:00,72.1,50.7,29.98,South,180,4.7,-999.0,47,-99.99,,,0.00,Acu-Link.com,2013-04-22 23:24:00,
2013-04-22 18:39:00,71.6,51.4,29.97,SSE,157,4.7,-999.0,49,-99.99,,,0.00,Acu-Link.com,2013-04-22 23:39:00,
2013-04-22 18:54:00,70.9,51.3,29.98,SE,135,5.3,-999.0,50,-99.99,,,0.00,Acu-Link.com,2013-04-22 23:54:00,
2013-04-22 19:09:00,69.8,51.4,29.97,SSE,157,2.7,-999.0,52,-99.99,,,0.00,Acu-Link.com,2013-04-23 00:09:00,
2013-04-22 19:24:00,68.5,51.7,29.97,SSE,157,2.2,-999.0,55,-99.99,,,0.00,Acu-Link.com,2013-04-23 00:24:00,
2013-04-22 19:39:00,67.5,51.7,29.97,SSE,157,1.7,-999.0,57,-99.99,,,0.00,Acu-Link.com,2013-04-23 00:39:00,
2013-04-22 19:55:00,66.2,51.9,29.97,ESE,112,0.0,-999.0,60,-99.99,,,0.00,Acu-Link.com,2013-04-23 00:55:00,
2013-04-22 20:10:00,64.6,52.6,29.97,SW,225,0.0,-999.0,65,-99.99,,,0.00,Acu-Link.com,2013-04-23 01:10:00,
2013-04-22 20:25:00,63.1,53.5,29.97,WSW,247,0.0,-999.0,71,-99.99,,,0.00,Acu-Link.com,2013-04-23 01:25:00,
2013-04-22 20:40:00,61.9,56.3,29.97,East,90,0.0,-999.0,82,-99.99,,,0.00,Acu-Link.com,2013-04-23 01:40:00,
2013-04-22 20:55:00,61.0,56.8,29.99,East,90,0.0,-999.0,86,-99.99,,,0.00,Acu-Link.com,2013-04-23 01:55:00,
2013-04-22 21:10:00,59.9,55.4,29.99,ESE,112,0.0,-999.0,85,-99.99,,,0.00,Acu-Link.com,2013-04-23 02:10:00,
2013-04-22 21:25:00,59.0,58.7,29.99,SE,135,0.0,-999.0,99,-99.99,,,0.00,Acu-Link.com,2013-04-23 02:25:00,
2013-04-22 21:40:00,58.1,57.8,30.00,SSE,157,0.0,-999.0,99,-99.99,,,0.00,Acu-Link.com,2013-04-23 02:40:00,
2013-04-22 21:55:00,57.7,57.4,29.99,South,180,0.0,-999.0,99,-99.99,,,0.00,Acu-Link.com,2013-04-23 02:55:00,
2013-04-22 22:10:00,57.2,56.9,30.00,ESE,112,0.0,-999.0,99,-99.99,,,0.00,Acu-Link.com,2013-04-23 03:10:00,
2013-04-22 22:26:00,57.2,56.9,30.00,SSE,157,0.0,-999.0,99,-99.99,,,0.00,Acu-Link.com,2013-04-23 03:26:00,
2013-04-22 22:41:00,57.6,57.3,30.00,SSE,157,0.0,-999.0,99,-99.99,,,0.00,Acu-Link.com,2013-04-23 03:41:00,
2013-04-22 22:56:00,57.9,57.6,30.00,SE,135,1.7,-999.0,99,-99.99,,,0.00,Acu-Link.com,2013-04-23 03:56:00,
2013-04-22 23:11:00,58.8,58.5,29.98,SSE,157,1.1,-999.0,99,-99.99,,,0.00,Acu-Link.com,2013-04-23 04:11:00,
2013-04-22 23:26:00,59.4,58.3,29.98,SSE,157,0.0,-999.0,96,-99.99,,,0.00,Acu-Link.com,2013-04-23 04:26:00,
2013-04-22 23:41:00,59.7,57.4,29.97,SE,135,2.2,-999.0,92,-99.99,,,0.00,Acu-Link.com,2013-04-23 04:41:00,
2013-04-22 23:56:00,59.5,56.9,29.97,SSE,157,1.1,-999.0,91,-99.99,,,0.00,Acu-Link.com,2013-04-23 04:56:00,